Terminal Aerodrome Forecast
Issued by NWS Albuquerque, NM

Home | Current Version | Previous Version | Text Only | Print | Product List | Glossary On
Versions: 1 2 3 4 5 6 7 8 9 10 11 12 13 14 15 16
183
FTUS45 KABQ 301138
TAFABQ
TAF
KABQ 301138Z 3012/0112 VRB05KT P6SM SCT020 BKN120
     FM301400 23005KT P6SM SCT100
     FM302200 26008KT P6SM VCTS SCT070CB BKN100
     FM010100 26008KT P6SM VCSH BKN100
     FM010300 16005KT P6SM BKN100=

USA.gov is the U.S. government's official web portal to all federal, state and local government web resources and services.